createdAt,value
2019-05-10T00:02:18.685Z,16.70
2019-05-10T00:05:10.711Z,16.70
2019-05-10T00:08:02.569Z,16.60
2019-05-10T00:10:35.815Z,16.60
2019-05-10T00:13:11.670Z,16.40
2019-05-10T00:15:45.854Z,16.50
2019-05-10T00:18:20.063Z,16.50
2019-05-10T00:20:56.014Z,16.40
2019-05-10T00:23:30.305Z,16.40
2019-05-10T00:26:04.554Z,16.40
2019-05-10T00:28:39.899Z,16.40
2019-05-10T00:31:14.218Z,16.20
2019-05-10T00:33:48.487Z,16.20
2019-05-10T00:36:22.708Z,16.30
2019-05-10T00:38:57.333Z,16.40
2019-05-10T00:41:34.686Z,16.40
2019-05-10T00:44:09.011Z,16.40
2019-05-10T00:46:43.418Z,16.50
2019-05-10T00:49:18.851Z,16.50
2019-05-10T00:51:53.188Z,16.50
2019-05-10T00:54:29.774Z,16.40
2019-05-10T00:57:04.384Z,16.50
2019-05-10T00:59:38.561Z,16.50
2019-05-10T01:02:12.906Z,16.50
2019-05-10T01:04:47.364Z,16.60
2019-05-10T01:07:21.768Z,16.70
2019-05-10T01:09:56.157Z,16.70
2019-05-10T01:12:30.624Z,16.80
2019-05-10T01:15:05.022Z,16.80
2019-05-10T01:17:40.869Z,16.90
2019-05-10T01:20:16.423Z,16.90
2019-05-10T01:22:50.898Z,17.00
2019-05-10T01:25:48.014Z,17.00
2019-05-10T01:28:22.277Z,17.00
2019-05-10T01:30:56.606Z,17.10
2019-05-10T01:33:32.258Z,17.20
2019-05-10T01:36:06.566Z,17.10
2019-05-10T01:38:42.122Z,17.10
2019-05-10T01:41:16.379Z,17.20
2019-05-10T01:43:51.522Z,17.30
2019-05-10T01:46:26.018Z,17.40
2019-05-10T01:49:00.618Z,17.40
2019-05-10T01:51:34.817Z,17.60
2019-05-10T01:54:10.176Z,17.50
2019-05-10T01:56:44.401Z,17.70
2019-05-10T01:59:18.662Z,17.70
2019-05-10T02:01:54.068Z,17.80
2019-05-10T02:04:29.502Z,17.90
2019-05-10T02:07:03.838Z,18.00
2019-05-10T02:09:38.176Z,18.10
2019-05-10T02:12:13.600Z,18.10
2019-05-10T02:14:48.406Z,18.20
2019-05-10T02:17:22.709Z,18.20
2019-05-10T02:19:56.972Z,18.30
2019-05-10T02:22:31.278Z,18.30
2019-05-10T02:25:05.675Z,18.30
2019-05-10T02:27:40.263Z,18.30
2019-05-10T02:30:14.801Z,18.40
2019-05-10T02:32:49.103Z,18.50
2019-05-10T02:35:23.385Z,18.50
2019-05-10T02:37:57.734Z,18.40
2019-05-10T02:40:32.052Z,18.50
2019-05-10T02:43:06.221Z,18.50
2019-05-10T02:45:40.562Z,18.50
2019-05-10T02:48:14.912Z,18.60
2019-05-10T02:50:49.657Z,18.60
2019-05-10T02:53:23.929Z,18.60
2019-05-10T02:55:59.122Z,18.60
2019-05-10T02:58:34.872Z,18.70
2019-05-10T03:01:10.874Z,18.70
2019-05-10T03:03:46.894Z,18.70
2019-05-10T03:06:23.819Z,18.70
2019-05-10T03:08:58.183Z,18.70
2019-05-10T03:11:34.396Z,18.70
2019-05-10T03:14:16.579Z,18.70
2019-05-10T03:16:54.775Z,18.80
2019-05-10T03:19:29.173Z,18.90
2019-05-10T03:22:09.836Z,18.80
2019-05-10T03:24:44.217Z,19.00
2019-05-10T03:27:18.579Z,19.10
2019-05-10T03:29:52.828Z,19.20
2019-05-10T03:32:28.286Z,19.20
2019-05-10T03:35:02.759Z,19.30
2019-05-10T03:37:37.354Z,19.40
2019-05-10T03:40:11.617Z,19.40
2019-05-10T03:42:46.226Z,19.50
2019-05-10T03:45:20.940Z,19.50
2019-05-10T03:47:55.442Z,19.60
2019-05-10T03:50:29.737Z,19.40
2019-05-10T03:53:04.061Z,19.50
2019-05-10T03:55:38.383Z,19.30
2019-05-10T03:58:12.699Z,19.20
2019-05-10T04:00:47.658Z,19.30
2019-05-10T04:03:22.489Z,19.30
2019-05-10T04:06:08.851Z,19.20
2019-05-10T04:08:43.207Z,19.20
2019-05-10T04:11:17.478Z,19.10
2019-05-10T04:13:51.894Z,19.20
2019-05-10T04:16:27.602Z,19.20
2019-05-10T04:19:01.960Z,19.20
2019-05-10T04:21:36.261Z,19.20
2019-05-10T04:24:10.589Z,19.20
2019-05-10T04:26:45.387Z,19.20
2019-05-10T04:29:21.643Z,19.30
2019-05-10T04:31:57.142Z,19.20
2019-05-10T04:34:32.765Z,19.20
2019-05-10T04:37:07.414Z,19.30
2019-05-10T04:39:42.203Z,19.40
2019-05-10T04:42:16.751Z,19.40
2019-05-10T04:44:53.387Z,19.40
2019-05-10T04:47:27.295Z,19.50
2019-05-10T04:50:02.929Z,19.50
2019-05-10T04:52:38.719Z,19.50
2019-05-10T04:55:13.279Z,19.50
2019-05-10T04:57:50.954Z,19.60
2019-05-10T05:00:23.446Z,19.70
2019-05-10T05:02:57.729Z,19.70
2019-05-10T05:05:32.059Z,19.70
2019-05-10T05:08:08.796Z,19.70
2019-05-10T05:13:25.992Z,19.70
2019-05-10T05:16:00.515Z,19.80
2019-05-10T05:18:34.968Z,19.80
2019-05-10T05:21:09.538Z,19.90
2019-05-10T05:23:51.674Z,20.00
2019-05-10T05:26:28.167Z,20.00
2019-05-10T05:29:02.267Z,20.00
2019-05-10T05:31:37.191Z,20.20
2019-05-10T05:34:11.676Z,20.30
2019-05-10T05:36:47.320Z,20.40
2019-05-10T05:39:21.892Z,20.50
2019-05-10T05:41:57.372Z,20.70
2019-05-10T05:44:32.890Z,21.00
2019-05-10T05:47:08.607Z,21.30
2019-05-10T05:49:43.359Z,21.40
2019-05-10T05:52:18.020Z,21.60
2019-05-10T05:54:52.997Z,21.70
2019-05-10T05:57:29.622Z,21.80
2019-05-10T06:00:06.702Z,22.00
2019-05-10T06:02:45.077Z,22.20
2019-05-10T06:05:32.814Z,22.30
2019-05-10T06:07:53.624Z,22.20
2019-05-10T06:10:56.833Z,22.40
2019-05-10T06:13:30.345Z,22.50
2019-05-10T06:16:06.786Z,22.60
2019-05-10T06:18:41.529Z,22.70
2019-05-10T06:21:17.991Z,22.80
2019-05-10T06:23:50.916Z,22.80
2019-05-10T06:26:28.616Z,22.80
2019-05-10T06:29:04.889Z,22.80
2019-05-10T06:31:39.647Z,22.90
2019-05-10T06:34:16.285Z,23.00
2019-05-10T06:36:56.145Z,23.20
2019-05-10T06:39:30.800Z,23.30
2019-05-10T06:42:06.801Z,23.40
2019-05-10T06:44:41.428Z,23.60
2019-05-10T06:47:16.948Z,23.60
2019-05-10T06:49:52.408Z,23.50
2019-05-10T06:52:29.761Z,23.70
2019-05-10T06:55:04.072Z,23.70
2019-05-10T06:57:40.001Z,23.80
2019-05-10T07:03:10.625Z,24.00
2019-05-10T07:05:45.251Z,24.00
2019-05-10T07:08:20.509Z,24.00
2019-05-10T07:10:54.946Z,24.10
2019-05-10T07:13:31.006Z,24.10
2019-05-10T07:16:06.983Z,24.20
2019-05-10T07:18:49.204Z,24.10
2019-05-10T07:21:25.906Z,24.20
2019-05-10T07:24:02.181Z,24.10
2019-05-10T07:26:38.433Z,24.20
2019-05-10T07:29:27.879Z,24.20
2019-05-10T07:31:48.733Z,24.30
2019-05-10T07:34:23.398Z,24.50
2019-05-10T07:37:01.971Z,24.70
2019-05-10T07:39:37.723Z,24.80
2019-05-10T07:42:18.533Z,24.90
2019-05-10T07:44:55.727Z,25.10
2019-05-10T07:47:32.500Z,25.20
2019-05-10T07:50:11.636Z,25.20
2019-05-10T07:52:50.213Z,25.30
2019-05-10T07:55:28.526Z,25.20
2019-05-10T07:58:05.075Z,25.20
2019-05-10T08:00:38.046Z,25.30
2019-05-10T08:03:17.499Z,25.40
2019-05-10T08:05:54.992Z,25.50
2019-05-10T08:08:25.693Z,25.60
2019-05-10T08:11:01.371Z,25.60
2019-05-10T08:13:35.608Z,25.50
2019-05-10T08:16:22.976Z,25.50
2019-05-10T08:19:00.998Z,25.60
2019-05-10T08:21:34.195Z,25.60
2019-05-10T08:24:22.233Z,25.50
2019-05-10T08:27:06.795Z,25.40
2019-05-10T08:29:33.045Z,25.40
2019-05-10T08:32:07.829Z,25.40
2019-05-10T08:34:51.649Z,25.20
2019-05-10T08:37:19.354Z,25.20
2019-05-10T08:39:56.013Z,25.00
2019-05-10T08:42:40.797Z,25.00
2019-05-10T08:45:08.966Z,25.00
2019-05-10T08:47:42.622Z,24.90
2019-05-10T08:50:42.232Z,24.90
2019-05-10T08:52:56.706Z,24.90
2019-05-10T08:55:28.284Z,24.90
2019-05-10T08:58:02.963Z,24.80
2019-05-10T09:00:49.669Z,24.90
2019-05-10T09:03:18.910Z,24.80
2019-05-10T09:05:53.702Z,24.70
2019-05-10T09:08:31.532Z,24.60
2019-05-10T09:11:06.588Z,24.60
2019-05-10T09:13:42.328Z,24.60
2019-05-10T09:16:15.966Z,24.50
2019-05-10T09:18:53.501Z,24.50
2019-05-10T09:21:32.689Z,24.50
2019-05-10T09:24:13.165Z,24.30
2019-05-10T09:26:54.830Z,24.30
2019-05-10T09:29:27.360Z,24.20
2019-05-10T09:32:04.045Z,24.20
2019-05-10T09:34:35.501Z,24.10
2019-05-10T09:37:16.075Z,24.00
2019-05-10T09:39:46.980Z,23.90
2019-05-10T09:42:26.481Z,23.80
2019-05-10T09:44:57.092Z,23.90
2019-05-10T09:47:32.980Z,23.80
2019-05-10T09:50:07.556Z,23.80
2019-05-10T09:52:44.263Z,23.70
2019-05-10T09:55:18.741Z,23.60
2019-05-10T09:57:53.203Z,23.60
2019-05-10T10:00:39.870Z,23.50
2019-05-10T10:03:14.109Z,23.50
2019-05-10T10:05:55.280Z,23.40
2019-05-10T10:08:28.101Z,23.30
2019-05-10T10:11:10.345Z,23.30
2019-05-10T10:13:40.827Z,23.40
2019-05-10T10:16:14.850Z,23.30
2019-05-10T10:18:49.744Z,23.40
2019-05-10T10:21:34.916Z,23.40
2019-05-10T10:24:12.724Z,23.30
2019-05-10T10:26:38.260Z,23.20
2019-05-10T10:29:13.731Z,23.20
2019-05-10T10:31:55.529Z,23.20
2019-05-10T10:34:32.559Z,23.10
2019-05-10T10:37:07.728Z,23.10
2019-05-10T10:43:31.639Z,23.10
2019-05-10T10:46:11.946Z,23.00
2019-05-10T10:48:43.655Z,23.00
2019-05-10T10:51:18.161Z,22.90
2019-05-10T10:53:54.837Z,22.90
2019-05-10T10:56:28.314Z,22.80
2019-05-10T10:59:02.572Z,22.80
2019-05-10T11:01:49.184Z,22.70
2019-05-10T11:04:12.428Z,22.70
2019-05-10T11:06:46.601Z,22.60
2019-05-10T11:09:20.846Z,22.60
2019-05-10T11:11:55.979Z,22.60
2019-05-10T11:14:31.992Z,22.50
2019-05-10T11:17:05.956Z,22.70
2019-05-10T11:19:41.748Z,22.70
2019-05-10T11:22:16.415Z,22.70
2019-05-10T11:25:03.108Z,22.80
2019-05-10T11:27:30.820Z,22.80
2019-05-10T11:30:12.106Z,22.80
2019-05-10T11:32:48.378Z,22.70
2019-05-10T11:35:31.358Z,22.70
2019-05-10T11:38:12.901Z,22.70
2019-05-10T11:41:06.926Z,22.70
2019-05-10T11:43:39.017Z,22.70
2019-05-10T11:46:13.701Z,22.60
2019-05-10T11:49:01.587Z,22.50
2019-05-10T11:51:35.250Z,22.40
2019-05-10T11:54:11.156Z,22.30
2019-05-10T11:56:46.058Z,22.30
2019-05-10T11:59:21.831Z,22.30
2019-05-10T12:01:59.503Z,22.30
2019-05-10T12:07:12.662Z,22.10
2019-05-10T12:09:53.338Z,22.10
2019-05-10T12:14:57.910Z,22.00
2019-05-10T12:17:32.443Z,22.10
2019-05-10T12:20:12.534Z,22.00
2019-05-10T12:22:52.145Z,21.90
2019-05-10T12:25:42.541Z,21.80
2019-05-10T12:26:16.068Z,22.10
2019-05-10T12:26:49.078Z,22.20
2019-05-10T12:28:03.995Z,21.90
2019-05-10T12:30:47.051Z,21.60
2019-05-10T12:33:25.901Z,21.40
2019-05-10T12:35:58.457Z,21.50
2019-05-10T12:38:35.834Z,21.40
2019-05-10T12:41:09.721Z,21.40
2019-05-10T12:43:48.210Z,21.50
2019-05-10T12:46:22.557Z,21.40
2019-05-10T12:48:56.432Z,21.40
2019-05-10T12:51:31.325Z,21.30
2019-05-10T12:54:07.235Z,21.30
2019-05-10T12:56:46.095Z,21.30
2019-05-10T12:59:17.342Z,21.20
2019-05-10T13:01:53.188Z,21.20
2019-05-10T13:04:40.093Z,21.10
2019-05-10T13:07:08.933Z,21.10
2019-05-10T13:10:01.419Z,21.00
2019-05-10T13:12:37.054Z,20.90
2019-05-10T13:15:12.315Z,20.80
2019-05-10T13:17:53.174Z,20.70
2019-05-10T13:20:25.433Z,20.70
2019-05-10T13:22:59.811Z,20.70
2019-05-10T13:25:35.484Z,20.70
2019-05-10T13:28:11.751Z,20.70
2019-05-10T13:30:47.703Z,20.60
2019-05-10T13:33:29.020Z,20.80
2019-05-10T13:35:58.581Z,20.90
2019-05-10T13:38:36.947Z,20.90
2019-05-10T13:41:17.789Z,20.80
2019-05-10T13:43:59.046Z,20.50
2019-05-10T13:46:30.589Z,20.30
2019-05-10T13:49:07.996Z,20.30
2019-05-10T13:51:42.181Z,20.10
2019-05-10T13:54:19.306Z,20.00
2019-05-10T13:56:56.022Z,20.00
2019-05-10T13:59:30.221Z,20.00
2019-05-10T14:02:09.817Z,19.90
2019-05-10T14:04:44.545Z,20.00
2019-05-10T14:07:21.415Z,19.90
2019-05-10T14:09:59.451Z,19.80
2019-05-10T14:12:35.283Z,19.70
2019-05-10T14:15:13.837Z,19.70
2019-05-10T14:17:49.894Z,19.80
2019-05-10T14:20:27.664Z,19.90
2019-05-10T14:23:03.557Z,19.70
2019-05-10T14:25:39.335Z,19.60
2019-05-10T14:28:18.219Z,19.50
2019-05-10T14:30:58.554Z,19.40
2019-05-10T14:33:33.852Z,19.40
2019-05-10T14:36:12.505Z,19.40
2019-05-10T14:38:53.863Z,19.30
2019-05-10T14:41:29.736Z,19.30
2019-05-10T14:44:05.558Z,19.20
2019-05-10T14:46:40.219Z,19.20
2019-05-10T14:49:18.940Z,19.10
2019-05-10T14:51:59.313Z,19.00
2019-05-10T14:54:43.266Z,19.00
2019-05-10T14:57:09.077Z,18.90
2019-05-10T14:59:46.286Z,18.90
2019-05-10T15:02:25.625Z,18.90
2019-05-10T15:05:01.808Z,18.90
2019-05-10T15:07:37.059Z,19.00
2019-05-10T15:10:11.903Z,19.20
2019-05-10T15:12:50.015Z,19.30
2019-05-10T15:15:24.729Z,19.20
2019-05-10T15:18:03.595Z,19.10
2019-05-10T15:20:38.556Z,19.00
2019-05-10T15:23:17.511Z,19.10
2019-05-10T15:25:57.534Z,19.00
2019-05-10T15:28:34.534Z,18.90
2019-05-10T15:31:07.112Z,19.00
2019-05-10T15:33:43.079Z,18.90
2019-05-10T15:36:23.665Z,18.90
2019-05-10T15:38:55.027Z,18.80
2019-05-10T15:41:33.318Z,18.80
2019-05-10T15:44:09.136Z,18.80
2019-05-10T15:46:51.957Z,18.90
2019-05-10T15:49:34.666Z,18.90
2019-05-10T15:52:19.102Z,18.80
2019-05-10T15:54:55.384Z,18.80
2019-05-10T15:57:32.546Z,18.80
2019-05-10T16:00:10.496Z,18.60
2019-05-10T16:02:47.304Z,18.50
2019-05-10T16:05:42.426Z,18.50
2019-05-10T16:08:04.686Z,18.50
2019-05-10T16:10:40.912Z,18.60
2019-05-10T16:13:23.275Z,18.40
2019-05-10T16:15:57.623Z,18.30
2019-05-10T16:18:33.641Z,18.50
2019-05-10T16:21:15.109Z,18.30
2019-05-10T16:23:49.680Z,18.30
2019-05-10T16:26:27.287Z,18.20
2019-05-10T16:29:04.491Z,18.20
2019-05-10T16:31:41.521Z,18.40
2019-05-10T16:34:16.214Z,18.20
2019-05-10T16:36:51.710Z,17.90
2019-05-10T16:39:28.481Z,17.70
2019-05-10T16:42:05.865Z,17.60
2019-05-10T16:44:40.574Z,17.40
2019-05-10T16:47:17.712Z,17.30
2019-05-10T16:49:55.019Z,17.30
2019-05-10T16:52:29.314Z,17.30
2019-05-10T16:55:05.815Z,17.30
2019-05-10T16:57:42.647Z,17.30
2019-05-10T17:00:22.140Z,17.00
2019-05-10T17:03:13.238Z,16.90
2019-05-10T17:05:53.077Z,16.90
2019-05-10T17:08:30.822Z,17.30
2019-05-10T17:11:09.603Z,17.10
2019-05-10T17:13:41.661Z,16.90
2019-05-10T17:16:16.985Z,16.90
2019-05-10T17:18:55.430Z,16.80
2019-05-10T17:21:30.388Z,16.80
2019-05-10T17:24:05.539Z,16.70
2019-05-10T17:26:42.011Z,16.60
2019-05-10T17:29:16.287Z,16.70
2019-05-10T17:31:51.882Z,16.70
2019-05-10T17:34:29.547Z,16.60
2019-05-10T17:37:05.714Z,16.80
2019-05-10T17:39:46.780Z,16.70
2019-05-10T17:42:21.745Z,16.70
2019-05-10T17:45:01.678Z,16.60
2019-05-10T17:47:32.457Z,16.60
2019-05-10T17:50:11.021Z,16.50
2019-05-10T17:52:46.705Z,16.50
2019-05-10T17:55:26.413Z,16.20
2019-05-10T17:58:04.038Z,16.30
2019-05-10T18:00:50.292Z,16.20
2019-05-10T18:03:25.885Z,16.20
2019-05-10T18:06:00.013Z,16.10
2019-05-10T18:08:39.084Z,16.10
2019-05-10T18:11:13.813Z,16.00
2019-05-10T18:13:48.195Z,16.00
2019-05-10T18:16:22.858Z,16.20
2019-05-10T18:18:58.414Z,16.10
2019-05-10T18:21:32.909Z,16.00
2019-05-10T18:24:08.457Z,16.00
2019-05-10T18:26:43.173Z,15.90
2019-05-10T18:29:17.495Z,15.80
2019-05-10T18:31:55.868Z,15.80
2019-05-10T18:34:33.070Z,15.80
2019-05-10T18:37:05.436Z,15.60
2019-05-10T18:39:47.162Z,15.80
2019-05-10T18:42:18.775Z,15.80
2019-05-10T18:44:55.456Z,16.00
2019-05-10T18:47:31.898Z,15.90
2019-05-10T18:50:09.136Z,15.90
2019-05-10T18:52:44.857Z,15.90
2019-05-10T18:55:21.323Z,15.80
2019-05-10T18:57:56.866Z,15.70
2019-05-10T19:00:31.192Z,15.90
2019-05-10T19:03:09.172Z,15.70
2019-05-10T19:05:48.963Z,15.70
2019-05-10T19:08:25.738Z,15.90
2019-05-10T19:11:00.344Z,15.70
2019-05-10T19:13:46.755Z,15.70
2019-05-10T19:16:11.131Z,15.60
2019-05-10T19:18:45.307Z,15.50
2019-05-10T19:21:19.660Z,15.40
2019-05-10T19:23:53.925Z,15.30
2019-05-10T19:26:29.459Z,15.30
2019-05-10T19:29:05.015Z,15.20
2019-05-10T19:31:40.421Z,15.30
2019-05-10T19:34:17.085Z,15.30
2019-05-10T19:36:50.678Z,15.20
2019-05-10T19:39:24.949Z,15.20
2019-05-10T19:42:04.169Z,15.10
2019-05-10T19:44:40.495Z,15.10
2019-05-10T19:47:17.811Z,15.00
2019-05-10T19:49:51.734Z,15.10
2019-05-10T19:52:26.099Z,15.20
2019-05-10T19:54:59.012Z,15.20
2019-05-10T19:57:33.211Z,15.20
2019-05-10T20:00:08.562Z,15.20
2019-05-10T20:02:42.810Z,15.10
2019-05-10T20:05:17.256Z,15.10
2019-05-10T20:07:51.977Z,15.30
2019-05-10T20:10:26.061Z,15.10
2019-05-10T20:13:00.240Z,15.10
2019-05-10T20:15:34.470Z,15.00
2019-05-10T20:18:13.621Z,14.90
2019-05-10T20:20:51.299Z,14.90
2019-05-10T20:23:25.676Z,15.00
2019-05-10T20:26:00.875Z,15.00
2019-05-10T20:28:35.055Z,14.90
2019-05-10T20:31:09.598Z,14.80
2019-05-10T20:33:43.878Z,14.80
2019-05-10T20:36:18.059Z,14.70
2019-05-10T20:38:52.287Z,14.70
2019-05-10T20:41:26.547Z,14.70
2019-05-10T20:44:00.765Z,14.60
2019-05-10T20:46:34.916Z,14.70
2019-05-10T20:49:09.229Z,14.70
2019-05-10T20:51:44.654Z,14.80
2019-05-10T20:54:18.872Z,14.60
2019-05-10T20:56:53.181Z,14.60
2019-05-10T20:59:27.382Z,14.60
2019-05-10T21:02:01.595Z,14.60
2019-05-10T21:04:35.865Z,14.60
2019-05-10T21:07:10.308Z,14.50
2019-05-10T21:09:44.620Z,14.40
2019-05-10T21:12:18.866Z,14.50
2019-05-10T21:14:53.676Z,14.30
2019-05-10T21:17:27.835Z,14.30
2019-05-10T21:20:02.048Z,14.30
2019-05-10T21:22:36.298Z,14.40
2019-05-10T21:25:12.357Z,14.40
2019-05-10T21:27:46.662Z,14.30
2019-05-10T21:30:20.941Z,14.30
2019-05-10T21:32:55.146Z,14.40
2019-05-10T21:35:30.426Z,14.20
2019-05-10T21:38:04.923Z,14.20
2019-05-10T21:40:40.335Z,14.30
2019-05-10T21:43:14.551Z,14.20
2019-05-10T21:45:48.850Z,14.20
2019-05-10T21:48:23.067Z,14.20
2019-05-10T21:50:57.428Z,14.20
2019-05-10T21:53:31.758Z,14.30
2019-05-10T21:56:06.168Z,14.20
2019-05-10T21:58:40.463Z,14.20
2019-05-10T22:01:14.638Z,14.20
2019-05-10T22:03:49.476Z,14.30
2019-05-10T22:06:23.644Z,14.30
2019-05-10T22:08:57.825Z,14.20
2019-05-10T22:11:32.147Z,14.10
2019-05-10T22:14:06.350Z,14.10
2019-05-10T22:16:40.610Z,14.10
2019-05-10T22:19:14.740Z,13.90
2019-05-10T22:21:49.019Z,14.00
2019-05-10T22:24:23.190Z,14.00
2019-05-10T22:26:57.271Z,13.90
2019-05-10T22:29:31.533Z,13.70
2019-05-10T22:32:05.786Z,13.70
2019-05-10T22:34:39.962Z,13.70
2019-05-10T22:37:14.256Z,13.70
2019-05-10T22:39:48.503Z,13.80
2019-05-10T22:42:23.074Z,13.90
2019-05-10T22:44:57.267Z,13.70
2019-05-10T22:47:31.451Z,13.70
2019-05-10T22:50:06.654Z,13.80
2019-05-10T22:52:41.052Z,13.70
2019-05-10T22:55:15.496Z,13.80
2019-05-10T22:57:50.031Z,13.90
2019-05-10T23:00:24.406Z,13.90
2019-05-10T23:03:01.770Z,14.00
2019-05-10T23:05:36.072Z,14.00
2019-05-10T23:08:10.365Z,14.00
2019-05-10T23:10:44.493Z,13.90
2019-05-10T23:13:18.834Z,14.00
2019-05-10T23:15:53.293Z,14.00
2019-05-10T23:18:27.571Z,14.10
2019-05-10T23:21:01.864Z,14.20
2019-05-10T23:23:35.967Z,14.20
2019-05-10T23:26:10.211Z,14.30
2019-05-10T23:28:44.377Z,14.40
2019-05-10T23:31:18.759Z,14.40
2019-05-10T23:33:52.994Z,14.40
2019-05-10T23:36:31.472Z,14.30
2019-05-10T23:39:06.252Z,14.40
2019-05-10T23:41:52.847Z,14.40
2019-05-10T23:44:27.032Z,14.40
2019-05-10T23:47:01.339Z,14.40
2019-05-10T23:49:35.544Z,14.50
2019-05-10T23:52:09.910Z,14.60
2019-05-10T23:54:45.847Z,14.70
2019-05-10T23:57:20.142Z,14.60
2019-05-10T23:59:54.433Z,14.60
